sensor_id;sensor_type;location;lat;lon;timestamp;P1;durP1;ratioP1;P2;durP2;ratioP2
43823;SDS011;29470;53.550;9.926;2023-11-21T00:03:59;20.58;;;8.27;;
43823;SDS011;29470;53.550;9.926;2023-11-21T00:09:04;20.08;;;8.60;;
43823;SDS011;29470;53.550;9.926;2023-11-21T00:14:10;16.77;;;7.65;;
43823;SDS011;29470;53.550;9.926;2023-11-21T00:19:13;15.73;;;8.02;;
43823;SDS011;29470;53.550;9.926;2023-11-21T00:24:17;16.40;;;7.75;;
43823;SDS011;29470;53.550;9.926;2023-11-21T00:29:20;13.93;;;7.13;;
43823;SDS011;29470;53.550;9.926;2023-11-21T00:34:23;10.18;;;5.40;;
43823;SDS011;29470;53.550;9.926;2023-11-21T00:39:27;11.15;;;5.85;;
43823;SDS011;29470;53.550;9.926;2023-11-21T00:44:30;15.45;;;6.40;;
43823;SDS011;29470;53.550;9.926;2023-11-21T00:49:32;12.05;;;5.90;;
43823;SDS011;29470;53.550;9.926;2023-11-21T00:54:37;15.38;;;7.53;;
43823;SDS011;29470;53.550;9.926;2023-11-21T00:59:40;14.32;;;7.65;;
43823;SDS011;29470;53.550;9.926;2023-11-21T01:04:43;16.67;;;8.00;;
43823;SDS011;29470;53.550;9.926;2023-11-21T01:09:47;17.92;;;8.80;;
43823;SDS011;29470;53.550;9.926;2023-11-21T01:14:50;17.10;;;8.38;;
43823;SDS011;29470;53.550;9.926;2023-11-21T01:19:53;17.60;;;7.40;;
43823;SDS011;29470;53.550;9.926;2023-11-21T01:24:59;22.40;;;10.20;;
43823;SDS011;29470;53.550;9.926;2023-11-21T01:30:02;29.88;;;11.88;;
43823;SDS011;29470;53.550;9.926;2023-11-21T01:35:06;25.25;;;11.38;;
43823;SDS011;29470;53.550;9.926;2023-11-21T01:40:11;23.48;;;11.48;;
43823;SDS011;29470;53.550;9.926;2023-11-21T01:45:16;22.55;;;9.63;;
43823;SDS011;29470;53.550;9.926;2023-11-21T01:50:19;22.45;;;10.27;;
43823;SDS011;29470;53.550;9.926;2023-11-21T01:55:25;15.35;;;6.93;;
43823;SDS011;29470;53.550;9.926;2023-11-21T02:00:30;20.15;;;9.60;;
43823;SDS011;29470;53.550;9.926;2023-11-21T02:05:33;17.10;;;9.38;;
43823;SDS011;29470;53.550;9.926;2023-11-21T02:10:38;18.10;;;8.75;;
43823;SDS011;29470;53.550;9.926;2023-11-21T02:15:42;13.80;;;5.97;;
43823;SDS011;29470;53.550;9.926;2023-11-21T02:20:46;16.33;;;6.82;;
43823;SDS011;29470;53.550;9.926;2023-11-21T02:25:51;12.82;;;6.38;;
43823;SDS011;29470;53.550;9.926;2023-11-21T02:30:54;15.57;;;7.70;;
43823;SDS011;29470;53.550;9.926;2023-11-21T02:35:59;13.20;;;6.47;;
43823;SDS011;29470;53.550;9.926;2023-11-21T02:41:03;12.07;;;5.93;;
43823;SDS011;29470;53.550;9.926;2023-11-21T02:46:06;10.38;;;5.40;;
43823;SDS011;29470;53.550;9.926;2023-11-21T02:51:11;10.88;;;5.65;;
43823;SDS011;29470;53.550;9.926;2023-11-21T02:56:15;10.77;;;5.57;;
43823;SDS011;29470;53.550;9.926;2023-11-21T03:01:18;12.07;;;6.93;;
43823;SDS011;29470;53.550;9.926;2023-11-21T03:06:21;12.25;;;7.18;;
43823;SDS011;29470;53.550;9.926;2023-11-21T03:11:26;12.85;;;7.18;;
43823;SDS011;29470;53.550;9.926;2023-11-21T03:16:29;11.73;;;6.55;;
43823;SDS011;29470;53.550;9.926;2023-11-21T03:21:32;13.38;;;6.63;;
43823;SDS011;29470;53.550;9.926;2023-11-21T03:26:36;13.18;;;6.20;;
43823;SDS011;29470;53.550;9.926;2023-11-21T03:31:40;14.18;;;6.55;;
43823;SDS011;29470;53.550;9.926;2023-11-21T03:36:43;14.60;;;7.05;;
43823;SDS011;29470;53.550;9.926;2023-11-21T03:41:49;13.02;;;6.78;;
43823;SDS011;29470;53.550;9.926;2023-11-21T03:46:53;11.00;;;5.35;;
43823;SDS011;29470;53.550;9.926;2023-11-21T03:51:56;12.20;;;5.70;;
43823;SDS011;29470;53.550;9.926;2023-11-21T03:57:00;10.90;;;5.70;;
43823;SDS011;29470;53.550;9.926;2023-11-21T04:02:03;10.25;;;6.28;;
43823;SDS011;29470;53.550;9.926;2023-11-21T04:07:06;12.52;;;6.68;;
43823;SDS011;29470;53.550;9.926;2023-11-21T04:12:10;12.50;;;6.90;;
43823;SDS011;29470;53.550;9.926;2023-11-21T04:17:13;16.17;;;7.47;;
43823;SDS011;29470;53.550;9.926;2023-11-21T04:22:16;10.85;;;6.60;;
43823;SDS011;29470;53.550;9.926;2023-11-21T04:27:20;13.25;;;6.60;;
43823;SDS011;29470;53.550;9.926;2023-11-21T04:32:23;16.00;;;7.97;;
43823;SDS011;29470;53.550;9.926;2023-11-21T04:37:26;14.23;;;7.47;;
43823;SDS011;29470;53.550;9.926;2023-11-21T04:42:30;13.13;;;7.13;;
43823;SDS011;29470;53.550;9.926;2023-11-21T04:47:33;13.68;;;7.63;;
43823;SDS011;29470;53.550;9.926;2023-11-21T04:52:36;16.13;;;7.50;;
43823;SDS011;29470;53.550;9.926;2023-11-21T04:57:40;12.38;;;7.93;;
43823;SDS011;29470;53.550;9.926;2023-11-21T05:02:43;13.75;;;7.45;;
43823;SDS011;29470;53.550;9.926;2023-11-21T05:07:46;14.38;;;7.15;;
43823;SDS011;29470;53.550;9.926;2023-11-21T05:12:51;12.75;;;6.70;;
43823;SDS011;29470;53.550;9.926;2023-11-21T05:17:54;14.43;;;7.05;;
43823;SDS011;29470;53.550;9.926;2023-11-21T05:23:01;11.23;;;6.50;;
43823;SDS011;29470;53.550;9.926;2023-11-21T05:28:05;15.57;;;7.03;;
43823;SDS011;29470;53.550;9.926;2023-11-21T05:33:08;12.25;;;7.10;;
43823;SDS011;29470;53.550;9.926;2023-11-21T05:38:11;13.63;;;7.38;;
43823;SDS011;29470;53.550;9.926;2023-11-21T05:43:15;14.77;;;7.00;;
43823;SDS011;29470;53.550;9.926;2023-11-21T05:48:19;13.93;;;7.10;;
43823;SDS011;29470;53.550;9.926;2023-11-21T05:53:23;12.35;;;7.07;;
43823;SDS011;29470;53.550;9.926;2023-11-21T05:58:28;11.77;;;6.72;;
43823;SDS011;29470;53.550;9.926;2023-11-21T06:03:31;12.30;;;7.18;;
43823;SDS011;29470;53.550;9.926;2023-11-21T06:08:34;14.68;;;7.30;;
43823;SDS011;29470;53.550;9.926;2023-11-21T06:13:38;13.65;;;7.40;;
43823;SDS011;29470;53.550;9.926;2023-11-21T06:18:41;11.73;;;6.78;;
43823;SDS011;29470;53.550;9.926;2023-11-21T06:23:44;13.18;;;7.28;;
43823;SDS011;29470;53.550;9.926;2023-11-21T06:28:48;12.88;;;7.68;;
43823;SDS011;29470;53.550;9.926;2023-11-21T06:33:54;13.52;;;7.90;;
43823;SDS011;29470;53.550;9.926;2023-11-21T06:38:57;12.20;;;7.00;;
43823;SDS011;29470;53.550;9.926;2023-11-21T06:44:01;11.80;;;7.05;;
43823;SDS011;29470;53.550;9.926;2023-11-21T06:49:05;12.07;;;7.45;;
43823;SDS011;29470;53.550;9.926;2023-11-21T06:54:08;12.55;;;7.07;;
43823;SDS011;29470;53.550;9.926;2023-11-21T06:59:12;15.63;;;7.38;;
43823;SDS011;29470;53.550;9.926;2023-11-21T07:04:15;13.68;;;7.25;;
43823;SDS011;29470;53.550;9.926;2023-11-21T07:09:37;16.05;;;7.82;;
43823;SDS011;29470;53.550;9.926;2023-11-21T07:26:21;13.95;;;6.95;;
43823;SDS011;29470;53.550;9.926;2023-11-21T07:32:01;12.52;;;6.80;;
43823;SDS011;29470;53.550;9.926;2023-11-21T07:37:06;12.88;;;7.25;;
43823;SDS011;29470;53.550;9.926;2023-11-21T07:42:45;12.30;;;6.68;;
43823;SDS011;29470;53.550;9.926;2023-11-21T08:00:10;15.00;;;8.57;;
43823;SDS011;29470;53.550;9.926;2023-11-21T08:06:07;12.30;;;6.45;;
43823;SDS011;29470;53.550;9.926;2023-11-21T08:11:12;17.08;;;6.95;;
43823;SDS011;29470;53.550;9.926;2023-11-21T08:16:14;12.68;;;6.90;;
43823;SDS011;29470;53.550;9.926;2023-11-21T08:21:18;9.32;;;5.90;;
43823;SDS011;29470;53.550;9.926;2023-11-21T08:26:23;13.63;;;5.78;;
43823;SDS011;29470;53.550;9.926;2023-11-21T08:31:28;9.18;;;5.10;;
43823;SDS011;29470;53.550;9.926;2023-11-21T08:36:33;9.20;;;4.97;;
43823;SDS011;29470;53.550;9.926;2023-11-21T08:41:39;8.75;;;5.13;;
43823;SDS011;29470;53.550;9.926;2023-11-21T08:46:44;8.30;;;4.80;;
43823;SDS011;29470;53.550;9.926;2023-11-21T08:51:48;7.03;;;4.38;;
43823;SDS011;29470;53.550;9.926;2023-11-21T08:56:53;8.63;;;4.70;;
43823;SDS011;29470;53.550;9.926;2023-11-21T09:01:56;7.45;;;4.43;;
43823;SDS011;29470;53.550;9.926;2023-11-21T09:06:59;9.15;;;4.85;;
43823;SDS011;29470;53.550;9.926;2023-11-21T09:12:08;5.22;;;3.30;;
43823;SDS011;29470;53.550;9.926;2023-11-21T09:17:13;10.18;;;4.38;;
43823;SDS011;29470;53.550;9.926;2023-11-21T09:22:18;6.80;;;4.30;;
43823;SDS011;29470;53.550;9.926;2023-11-21T09:27:24;10.30;;;5.30;;
43823;SDS011;29470;53.550;9.926;2023-11-21T09:32:30;6.57;;;3.85;;
43823;SDS011;29470;53.550;9.926;2023-11-21T09:37:34;6.13;;;3.53;;
43823;SDS011;29470;53.550;9.926;2023-11-21T09:42:54;9.50;;;4.30;;
43823;SDS011;29470;53.550;9.926;2023-11-21T09:47:58;7.68;;;4.13;;
43823;SDS011;29470;53.550;9.926;2023-11-21T09:53:05;6.20;;;3.60;;
43823;SDS011;29470;53.550;9.926;2023-11-21T09:58:17;6.38;;;3.20;;
43823;SDS011;29470;53.550;9.926;2023-11-21T10:03:22;6.80;;;3.85;;
43823;SDS011;29470;53.550;9.926;2023-11-21T10:08:28;6.45;;;3.33;;
43823;SDS011;29470;53.550;9.926;2023-11-21T10:13:52;6.65;;;3.88;;
43823;SDS011;29470;53.550;9.926;2023-11-21T10:19:03;12.15;;;4.35;;
43823;SDS011;29470;53.550;9.926;2023-11-21T10:24:19;6.65;;;3.42;;
43823;SDS011;29470;53.550;9.926;2023-11-21T10:29:28;12.32;;;4.55;;
43823;SDS011;29470;53.550;9.926;2023-11-21T10:34:35;11.32;;;4.20;;
43823;SDS011;29470;53.550;9.926;2023-11-21T10:39:56;4.53;;;3.13;;
43823;SDS011;29470;53.550;9.926;2023-11-21T10:45:33;7.32;;;3.35;;
43823;SDS011;29470;53.550;9.926;2023-11-21T10:50:38;5.80;;;3.20;;
43823;SDS011;29470;53.550;9.926;2023-11-21T10:55:45;8.35;;;3.75;;
43823;SDS011;29470;53.550;9.926;2023-11-21T11:00:49;4.75;;;3.13;;
43823;SDS011;29470;53.550;9.926;2023-11-21T11:05:53;5.15;;;3.08;;
43823;SDS011;29470;53.550;9.926;2023-11-21T11:10:56;6.75;;;3.60;;
43823;SDS011;29470;53.550;9.926;2023-11-21T11:16:01;5.68;;;3.00;;
43823;SDS011;29470;53.550;9.926;2023-11-21T11:21:11;5.85;;;3.13;;
43823;SDS011;29470;53.550;9.926;2023-11-21T11:26:28;6.45;;;3.28;;
43823;SDS011;29470;53.550;9.926;2023-11-21T11:31:47;6.88;;;3.42;;
43823;SDS011;29470;53.550;9.926;2023-11-21T11:37:00;5.32;;;3.05;;
43823;SDS011;29470;53.550;9.926;2023-11-21T11:42:06;8.57;;;3.47;;
43823;SDS011;29470;53.550;9.926;2023-11-21T11:47:23;6.72;;;3.55;;
43823;SDS011;29470;53.550;9.926;2023-11-21T11:52:35;6.60;;;3.28;;
43823;SDS011;29470;53.550;9.926;2023-11-21T11:57:40;6.45;;;3.10;;
43823;SDS011;29470;53.550;9.926;2023-11-21T12:02:45;6.97;;;3.67;;
43823;SDS011;29470;53.550;9.926;2023-11-21T12:07:51;6.40;;;3.28;;
43823;SDS011;29470;53.550;9.926;2023-11-21T12:12:59;6.80;;;2.88;;
43823;SDS011;29470;53.550;9.926;2023-11-21T12:18:12;7.35;;;3.40;;
43823;SDS011;29470;53.550;9.926;2023-11-21T12:23:16;6.93;;;2.80;;
43823;SDS011;29470;53.550;9.926;2023-11-21T12:28:24;6.63;;;3.63;;
43823;SDS011;29470;53.550;9.926;2023-11-21T12:33:31;6.78;;;3.53;;
43823;SDS011;29470;53.550;9.926;2023-11-21T12:38:37;6.53;;;3.00;;
43823;SDS011;29470;53.550;9.926;2023-11-21T12:43:40;7.15;;;3.60;;
43823;SDS011;29470;53.550;9.926;2023-11-21T12:48:46;6.18;;;3.40;;
43823;SDS011;29470;53.550;9.926;2023-11-21T12:53:49;5.47;;;3.15;;
43823;SDS011;29470;53.550;9.926;2023-11-21T12:58:56;5.68;;;3.40;;
43823;SDS011;29470;53.550;9.926;2023-11-21T13:04:09;5.15;;;2.85;;
43823;SDS011;29470;53.550;9.926;2023-11-21T13:09:15;6.80;;;3.25;;
43823;SDS011;29470;53.550;9.926;2023-11-21T13:14:28;5.32;;;2.80;;
43823;SDS011;29470;53.550;9.926;2023-11-21T13:19:35;6.88;;;3.00;;
43823;SDS011;29470;53.550;9.926;2023-11-21T13:24:44;6.05;;;3.35;;
43823;SDS011;29470;53.550;9.926;2023-11-21T13:29:49;6.95;;;3.30;;
43823;SDS011;29470;53.550;9.926;2023-11-21T13:34:56;6.47;;;3.58;;
43823;SDS011;29470;53.550;9.926;2023-11-21T13:40:01;5.25;;;3.40;;
43823;SDS011;29470;53.550;9.926;2023-11-21T13:45:18;7.40;;;3.78;;
43823;SDS011;29470;53.550;9.926;2023-11-21T13:50:30;6.32;;;3.92;;
43823;SDS011;29470;53.550;9.926;2023-11-21T13:56:42;5.38;;;3.33;;
43823;SDS011;29470;53.550;9.926;2023-11-21T14:01:37;6.07;;;3.72;;
43823;SDS011;29470;53.550;9.926;2023-11-21T14:13:53;8.38;;;3.67;;
43823;SDS011;29470;53.550;9.926;2023-11-21T14:18:58;7.30;;;3.20;;
43823;SDS011;29470;53.550;9.926;2023-11-21T14:24:13;5.60;;;3.38;;
43823;SDS011;29470;53.550;9.926;2023-11-21T14:29:20;6.32;;;3.35;;
43823;SDS011;29470;53.550;9.926;2023-11-21T14:34:25;6.60;;;3.40;;
43823;SDS011;29470;53.550;9.926;2023-11-21T14:39:28;5.55;;;3.20;;
43823;SDS011;29470;53.550;9.926;2023-11-21T14:44:32;5.55;;;3.03;;
43823;SDS011;29470;53.550;9.926;2023-11-21T14:49:40;4.97;;;2.83;;
43823;SDS011;29470;53.550;9.926;2023-11-21T14:54:53;4.07;;;2.33;;
43823;SDS011;29470;53.550;9.926;2023-11-21T15:00:19;6.03;;;2.72;;
43823;SDS011;29470;53.550;9.926;2023-11-21T15:05:46;4.88;;;2.33;;
43823;SDS011;29470;53.550;9.926;2023-11-21T15:10:51;4.05;;;1.98;;
43823;SDS011;29470;53.550;9.926;2023-11-21T15:15:57;4.20;;;1.90;;
43823;SDS011;29470;53.550;9.926;2023-11-21T15:21:09;4.10;;;1.95;;
43823;SDS011;29470;53.550;9.926;2023-11-21T15:26:13;3.70;;;2.22;;
43823;SDS011;29470;53.550;9.926;2023-11-21T15:31:17;4.97;;;2.42;;
43823;SDS011;29470;53.550;9.926;2023-11-21T15:36:25;3.00;;;1.67;;
43823;SDS011;29470;53.550;9.926;2023-11-21T15:41:28;3.55;;;1.80;;
43823;SDS011;29470;53.550;9.926;2023-11-21T15:46:32;4.18;;;2.33;;
43823;SDS011;29470;53.550;9.926;2023-11-21T15:51:36;5.10;;;2.30;;
43823;SDS011;29470;53.550;9.926;2023-11-21T15:56:39;4.15;;;2.50;;
43823;SDS011;29470;53.550;9.926;2023-11-21T16:01:43;4.38;;;2.10;;
43823;SDS011;29470;53.550;9.926;2023-11-21T16:06:48;5.13;;;2.72;;
43823;SDS011;29470;53.550;9.926;2023-11-21T16:11:51;8.73;;;3.40;;
43823;SDS011;29470;53.550;9.926;2023-11-21T16:17:01;5.72;;;3.10;;
43823;SDS011;29470;53.550;9.926;2023-11-21T16:22:04;6.63;;;2.80;;
43823;SDS011;29470;53.550;9.926;2023-11-21T16:27:08;5.35;;;2.97;;
43823;SDS011;29470;53.550;9.926;2023-11-21T16:32:13;5.63;;;3.40;;
43823;SDS011;29470;53.550;9.926;2023-11-21T16:37:17;7.57;;;4.00;;
43823;SDS011;29470;53.550;9.926;2023-11-21T16:42:20;6.68;;;4.07;;
43823;SDS011;29470;53.550;9.926;2023-11-21T16:47:25;9.30;;;4.78;;
43823;SDS011;29470;53.550;9.926;2023-11-21T16:52:30;8.20;;;4.97;;
43823;SDS011;29470;53.550;9.926;2023-11-21T16:57:33;10.10;;;5.55;;
43823;SDS011;29470;53.550;9.926;2023-11-21T17:02:38;10.50;;;5.45;;
43823;SDS011;29470;53.550;9.926;2023-11-21T17:07:42;9.50;;;5.00;;
43823;SDS011;29470;53.550;9.926;2023-11-21T17:12:45;10.38;;;4.88;;
43823;SDS011;29470;53.550;9.926;2023-11-21T17:17:49;8.50;;;4.63;;
43823;SDS011;29470;53.550;9.926;2023-11-21T17:22:56;8.60;;;3.92;;
43823;SDS011;29470;53.550;9.926;2023-11-21T17:27:59;6.22;;;2.78;;
43823;SDS011;29470;53.550;9.926;2023-11-21T17:33:04;9.57;;;4.70;;
43823;SDS011;29470;53.550;9.926;2023-11-21T17:38:08;10.63;;;4.72;;
43823;SDS011;29470;53.550;9.926;2023-11-21T17:43:11;4.90;;;2.60;;
43823;SDS011;29470;53.550;9.926;2023-11-21T17:48:15;5.85;;;2.72;;
43823;SDS011;29470;53.550;9.926;2023-11-21T17:53:18;3.15;;;2.33;;
43823;SDS011;29470;53.550;9.926;2023-11-21T17:58:21;4.78;;;2.25;;
43823;SDS011;29470;53.550;9.926;2023-11-21T18:03:25;4.43;;;2.10;;
43823;SDS011;29470;53.550;9.926;2023-11-21T18:08:28;5.45;;;3.03;;
43823;SDS011;29470;53.550;9.926;2023-11-21T18:13:31;4.43;;;2.08;;
43823;SDS011;29470;53.550;9.926;2023-11-21T18:18:35;6.38;;;2.47;;
43823;SDS011;29470;53.550;9.926;2023-11-21T18:23:38;5.88;;;2.92;;
43823;SDS011;29470;53.550;9.926;2023-11-21T18:28:41;7.32;;;3.85;;
43823;SDS011;29470;53.550;9.926;2023-11-21T18:33:46;7.55;;;4.55;;
43823;SDS011;29470;53.550;9.926;2023-11-21T18:38:49;7.35;;;3.33;;
43823;SDS011;29470;53.550;9.926;2023-11-21T18:43:52;4.03;;;2.50;;
43823;SDS011;29470;53.550;9.926;2023-11-21T18:48:57;6.10;;;3.08;;
43823;SDS011;29470;53.550;9.926;2023-11-21T18:54:00;8.95;;;4.45;;
43823;SDS011;29470;53.550;9.926;2023-11-21T18:59:11;8.32;;;3.47;;
43823;SDS011;29470;53.550;9.926;2023-11-21T19:04:15;7.22;;;3.88;;
43823;SDS011;29470;53.550;9.926;2023-11-21T19:09:25;7.20;;;4.20;;
43823;SDS011;29470;53.550;9.926;2023-11-21T19:14:28;7.47;;;3.35;;
43823;SDS011;29470;53.550;9.926;2023-11-21T19:19:33;6.72;;;3.13;;
43823;SDS011;29470;53.550;9.926;2023-11-21T19:24:38;8.20;;;4.00;;
43823;SDS011;29470;53.550;9.926;2023-11-21T19:29:42;8.38;;;4.47;;
43823;SDS011;29470;53.550;9.926;2023-11-21T19:34:46;12.32;;;4.35;;
43823;SDS011;29470;53.550;9.926;2023-11-21T19:39:50;8.23;;;4.80;;
43823;SDS011;29470;53.550;9.926;2023-11-21T19:44:55;8.82;;;4.53;;
43823;SDS011;29470;53.550;9.926;2023-11-21T19:49:59;9.48;;;4.50;;
43823;SDS011;29470;53.550;9.926;2023-11-21T19:55:02;7.68;;;4.32;;
43823;SDS011;29470;53.550;9.926;2023-11-21T20:00:06;8.50;;;4.32;;
43823;SDS011;29470;53.550;9.926;2023-11-21T20:05:14;7.32;;;3.78;;
43823;SDS011;29470;53.550;9.926;2023-11-21T20:10:17;6.15;;;3.63;;
43823;SDS011;29470;53.550;9.926;2023-11-21T20:15:22;5.22;;;2.60;;
43823;SDS011;29470;53.550;9.926;2023-11-21T20:20:28;5.05;;;2.75;;
43823;SDS011;29470;53.550;9.926;2023-11-21T20:25:31;6.38;;;3.08;;
43823;SDS011;29470;53.550;9.926;2023-11-21T20:30:36;6.68;;;3.33;;
43823;SDS011;29470;53.550;9.926;2023-11-21T20:35:41;5.80;;;2.70;;
43823;SDS011;29470;53.550;9.926;2023-11-21T20:40:44;6.18;;;2.42;;
43823;SDS011;29470;53.550;9.926;2023-11-21T20:45:47;6.32;;;2.38;;
43823;SDS011;29470;53.550;9.926;2023-11-21T20:50:51;3.13;;;1.77;;
43823;SDS011;29470;53.550;9.926;2023-11-21T20:55:54;6.88;;;3.00;;
43823;SDS011;29470;53.550;9.926;2023-11-21T21:01:00;6.05;;;2.75;;
43823;SDS011;29470;53.550;9.926;2023-11-21T21:06:04;3.97;;;2.30;;
43823;SDS011;29470;53.550;9.926;2023-11-21T21:11:08;5.78;;;2.50;;
43823;SDS011;29470;53.550;9.926;2023-11-21T21:16:11;3.80;;;2.00;;
43823;SDS011;29470;53.550;9.926;2023-11-21T21:21:16;4.40;;;2.10;;
43823;SDS011;29470;53.550;9.926;2023-11-21T21:26:19;5.75;;;2.40;;
43823;SDS011;29470;53.550;9.926;2023-11-21T21:31:21;5.93;;;2.70;;
43823;SDS011;29470;53.550;9.926;2023-11-21T21:36:26;4.45;;;2.20;;
43823;SDS011;29470;53.550;9.926;2023-11-21T21:41:30;3.22;;;2.20;;
43823;SDS011;29470;53.550;9.926;2023-11-21T21:46:33;4.18;;;2.05;;
43823;SDS011;29470;53.550;9.926;2023-11-21T21:51:37;6.43;;;2.28;;
43823;SDS011;29470;53.550;9.926;2023-11-21T21:56:40;4.20;;;2.20;;
43823;SDS011;29470;53.550;9.926;2023-11-21T22:01:43;5.40;;;2.35;;
43823;SDS011;29470;53.550;9.926;2023-11-21T22:06:47;5.35;;;2.80;;
43823;SDS011;29470;53.550;9.926;2023-11-21T22:11:50;4.85;;;2.17;;
43823;SDS011;29470;53.550;9.926;2023-11-21T22:16:54;7.00;;;2.60;;
43823;SDS011;29470;53.550;9.926;2023-11-21T22:21:58;5.07;;;2.78;;
43823;SDS011;29470;53.550;9.926;2023-11-21T22:27:01;4.47;;;2.45;;
43823;SDS011;29470;53.550;9.926;2023-11-21T22:32:05;4.90;;;2.47;;
43823;SDS011;29470;53.550;9.926;2023-11-21T22:37:09;4.85;;;2.80;;
43823;SDS011;29470;53.550;9.926;2023-11-21T22:42:12;7.70;;;2.30;;
43823;SDS011;29470;53.550;9.926;2023-11-21T22:47:15;4.55;;;2.60;;
43823;SDS011;29470;53.550;9.926;2023-11-21T22:52:19;6.10;;;2.60;;
43823;SDS011;29470;53.550;9.926;2023-11-21T22:57:22;3.35;;;2.00;;
43823;SDS011;29470;53.550;9.926;2023-11-21T23:02:25;6.25;;;2.72;;
43823;SDS011;29470;53.550;9.926;2023-11-21T23:07:30;4.80;;;2.40;;
43823;SDS011;29470;53.550;9.926;2023-11-21T23:12:32;5.10;;;2.67;;
43823;SDS011;29470;53.550;9.926;2023-11-21T23:17:36;5.55;;;2.50;;
43823;SDS011;29470;53.550;9.926;2023-11-21T23:22:42;4.53;;;2.60;;
43823;SDS011;29470;53.550;9.926;2023-11-21T23:27:45;4.55;;;2.40;;
43823;SDS011;29470;53.550;9.926;2023-11-21T23:32:48;5.80;;;2.83;;
43823;SDS011;29470;53.550;9.926;2023-11-21T23:37:52;4.03;;;2.40;;
43823;SDS011;29470;53.550;9.926;2023-11-21T23:42:55;6.38;;;2.83;;
43823;SDS011;29470;53.550;9.926;2023-11-21T23:47:59;4.93;;;2.15;;
43823;SDS011;29470;53.550;9.926;2023-11-21T23:53:04;6.15;;;3.13;;
43823;SDS011;29470;53.550;9.926;2023-11-21T23:58:07;6.97;;;3.00;;
